createdAt,value
2023-08-22T00:01:52.225Z,26.80
2023-08-22T00:04:19.127Z,26.80
2023-08-22T00:06:46.055Z,27.50
2023-08-22T00:09:13.186Z,27.80
2023-08-22T00:11:40.067Z,27.70
2023-08-22T00:14:07.757Z,27.30
2023-08-22T00:16:34.790Z,27.00
2023-08-22T00:19:01.717Z,26.90
2023-08-22T00:21:31.670Z,27.50
2023-08-22T00:24:00.396Z,27.60
2023-08-22T00:26:28.358Z,27.50
2023-08-22T00:28:55.393Z,27.50
2023-08-22T00:31:22.599Z,27.60
2023-08-22T00:33:50.095Z,27.90
2023-08-22T00:36:16.997Z,28.50
2023-08-22T00:38:43.926Z,28.60
2023-08-22T00:41:10.811Z,29.00
2023-08-22T00:43:37.726Z,29.40
2023-08-22T00:46:05.000Z,29.20
2023-08-22T00:48:32.761Z,29.40
2023-08-22T00:50:59.747Z,29.60
2023-08-22T00:53:27.276Z,29.40
2023-08-22T00:55:54.485Z,29.40
2023-08-22T00:58:22.883Z,29.50
2023-08-22T01:00:49.841Z,29.50
2023-08-22T01:03:19.379Z,29.80
2023-08-22T01:05:53.846Z,30.00
2023-08-22T01:08:27.050Z,29.90
2023-08-22T01:10:56.871Z,29.10
2023-08-22T01:13:38.560Z,28.80
2023-08-22T01:16:06.549Z,28.10
2023-08-22T01:18:34.281Z,27.80
2023-08-22T01:21:07.532Z,28.00
2023-08-22T01:23:34.854Z,27.70
2023-08-22T01:26:02.069Z,27.60
2023-08-22T01:28:39.771Z,27.50
2023-08-22T01:31:22.734Z,27.40
2023-08-22T01:34:02.828Z,27.20
2023-08-22T01:36:30.914Z,27.20
2023-08-22T01:38:58.811Z,27.20
2023-08-22T01:41:26.357Z,27.30
2023-08-22T01:43:53.299Z,27.40
2023-08-22T01:46:20.444Z,28.00
2023-08-22T01:48:47.328Z,28.60
2023-08-22T01:51:15.808Z,29.20
2023-08-22T01:53:43.429Z,29.30
2023-08-22T01:56:10.399Z,29.10
2023-08-22T01:58:37.314Z,28.80
2023-08-22T02:01:12.292Z,28.50
2023-08-22T02:03:43.446Z,28.50
2023-08-22T02:06:10.950Z,28.50
2023-08-22T02:08:39.625Z,28.10
2023-08-22T02:11:08.076Z,28.10
2023-08-22T02:13:35.104Z,27.90
2023-08-22T02:16:02.213Z,27.80
2023-08-22T02:18:29.338Z,27.60
2023-08-22T02:20:57.878Z,27.50
2023-08-22T02:23:25.075Z,27.40
2023-08-22T02:25:51.964Z,27.50
2023-08-22T02:28:18.876Z,28.20
2023-08-22T02:30:46.092Z,28.40
2023-08-22T02:33:13.133Z,28.30
2023-08-22T02:35:40.763Z,28.00
2023-08-22T02:38:07.694Z,27.80
2023-08-22T02:40:35.825Z,27.90
2023-08-22T02:43:03.508Z,27.90
2023-08-22T02:45:31.886Z,27.80
2023-08-22T02:47:59.172Z,27.70
2023-08-22T02:50:26.149Z,28.10
2023-08-22T02:52:53.031Z,28.40
2023-08-22T02:55:20.317Z,28.50
2023-08-22T02:57:47.456Z,28.50
2023-08-22T03:00:15.178Z,28.20
2023-08-22T03:02:42.532Z,28.00
2023-08-22T03:05:15.215Z,28.10
2023-08-22T03:07:42.991Z,28.20
2023-08-22T03:10:10.496Z,28.20
2023-08-22T03:12:37.525Z,28.40
2023-08-22T03:15:05.268Z,28.50
2023-08-22T03:17:32.291Z,28.10
2023-08-22T03:19:59.814Z,27.80
2023-08-22T03:22:27.053Z,27.90
2023-08-22T03:24:54.045Z,27.70
2023-08-22T03:27:20.934Z,27.80
2023-08-22T03:29:47.921Z,27.80
2023-08-22T03:32:14.844Z,27.70
2023-08-22T03:34:42.037Z,27.70
2023-08-22T03:37:09.162Z,27.80
2023-08-22T03:39:36.128Z,28.00
2023-08-22T03:42:03.051Z,28.30
2023-08-22T03:44:31.715Z,28.60
2023-08-22T03:46:58.849Z,28.50
2023-08-22T03:49:25.862Z,28.80
2023-08-22T03:51:53.002Z,28.70
2023-08-22T03:54:19.958Z,28.40
2023-08-22T03:56:46.858Z,28.20
2023-08-22T03:59:13.925Z,28.00
2023-08-22T04:01:40.914Z,27.70
2023-08-22T04:04:07.865Z,28.40
2023-08-22T04:06:34.945Z,28.10
2023-08-22T04:09:01.894Z,28.20
2023-08-22T04:11:28.899Z,27.90
2023-08-22T04:13:55.904Z,28.00
2023-08-22T04:16:23.122Z,28.00
2023-08-22T04:18:50.088Z,28.20
2023-08-22T04:21:16.977Z,28.70
2023-08-22T04:23:44.020Z,28.70
2023-08-22T04:26:10.876Z,28.70
2023-08-22T04:28:38.311Z,28.10
2023-08-22T04:31:05.625Z,27.80
2023-08-22T04:33:32.634Z,27.90
2023-08-22T04:35:59.595Z,28.40
2023-08-22T04:38:26.637Z,28.70
2023-08-22T04:40:53.632Z,28.50
2023-08-22T04:43:20.546Z,28.20
2023-08-22T04:45:47.554Z,28.10
2023-08-22T04:48:14.885Z,28.00
2023-08-22T04:50:41.873Z,28.00
2023-08-22T04:53:08.811Z,28.50
2023-08-22T04:55:35.796Z,29.10
2023-08-22T04:58:02.742Z,29.90
2023-08-22T05:00:29.701Z,30.40
2023-08-22T05:02:56.752Z,30.70
2023-08-22T05:05:23.716Z,30.10
2023-08-22T05:07:50.728Z,29.50
2023-08-22T05:10:17.682Z,28.80
2023-08-22T05:12:44.551Z,28.20
2023-08-22T05:15:11.593Z,27.80
2023-08-22T05:17:39.415Z,27.50
2023-08-22T05:20:08.038Z,27.40
2023-08-22T05:22:35.073Z,27.20
2023-08-22T05:25:02.078Z,27.00
2023-08-22T05:27:29.074Z,27.10
2023-08-22T05:29:56.071Z,27.10
2023-08-22T05:32:24.769Z,27.50
2023-08-22T05:34:51.968Z,27.70
2023-08-22T05:37:18.882Z,27.50
2023-08-22T05:39:45.976Z,27.70
2023-08-22T05:42:13.078Z,27.70
2023-08-22T05:44:40.027Z,28.30
2023-08-22T05:47:08.300Z,28.60
2023-08-22T05:49:35.468Z,28.80
2023-08-22T05:52:04.406Z,28.70
2023-08-22T05:54:32.666Z,28.60
2023-08-22T05:57:00.033Z,28.50
2023-08-22T05:59:27.495Z,28.50
2023-08-22T06:01:56.899Z,28.40
2023-08-22T06:04:26.443Z,28.40
2023-08-22T06:06:53.489Z,28.70
2023-08-22T06:09:20.671Z,28.40
2023-08-22T06:11:47.605Z,28.10
2023-08-22T06:14:14.540Z,28.20
2023-08-22T06:16:41.488Z,28.80
2023-08-22T06:19:08.543Z,28.70
2023-08-22T06:21:35.663Z,28.60
2023-08-22T06:24:03.833Z,28.50
2023-08-22T06:26:30.760Z,29.20
2023-08-22T06:28:57.672Z,29.30
2023-08-22T06:31:24.898Z,29.80
2023-08-22T06:33:51.812Z,29.90
2023-08-22T06:36:18.749Z,29.40
2023-08-22T06:38:45.897Z,29.10
2023-08-22T06:41:12.882Z,29.20
2023-08-22T06:43:39.837Z,29.50
2023-08-22T06:46:06.989Z,29.70
2023-08-22T06:48:42.106Z,30.40
2023-08-22T06:51:10.472Z,29.70
2023-08-22T06:53:37.613Z,29.50
2023-08-22T06:56:04.813Z,29.80
2023-08-22T06:58:31.820Z,29.40
2023-08-22T07:00:59.269Z,29.80
2023-08-22T07:03:26.560Z,30.40
2023-08-22T07:05:55.077Z,30.00
2023-08-22T07:08:22.264Z,29.90
2023-08-22T07:10:49.216Z,29.20
2023-08-22T07:13:19.162Z,29.40
2023-08-22T07:15:49.629Z,29.40
2023-08-22T07:18:18.729Z,29.30
2023-08-22T07:20:46.787Z,29.50
2023-08-22T07:23:14.128Z,29.10
2023-08-22T07:25:41.410Z,28.60
2023-08-22T07:28:09.626Z,28.20
2023-08-22T07:30:36.608Z,27.70
2023-08-22T07:33:03.666Z,27.50
2023-08-22T07:35:32.043Z,27.30
2023-08-22T07:37:58.944Z,27.20
2023-08-22T07:40:25.838Z,27.50
2023-08-22T07:42:52.798Z,27.60
2023-08-22T07:45:19.857Z,27.70
2023-08-22T07:47:47.064Z,28.00
2023-08-22T07:50:14.059Z,28.00
2023-08-22T07:52:40.993Z,28.20
2023-08-22T07:55:08.443Z,28.30
2023-08-22T07:57:35.424Z,28.00
2023-08-22T08:00:03.133Z,28.00
2023-08-22T08:02:30.702Z,28.00
2023-08-22T08:04:57.756Z,27.80
2023-08-22T08:07:24.668Z,27.60
2023-08-22T08:09:51.780Z,27.10
2023-08-22T08:12:18.704Z,27.10
2023-08-22T08:14:45.565Z,27.00
2023-08-22T08:17:12.642Z,26.50
2023-08-22T08:19:40.342Z,26.80
2023-08-22T08:22:07.894Z,26.80
2023-08-22T08:24:35.090Z,27.20
2023-08-22T08:27:02.088Z,26.60
2023-08-22T08:29:29.032Z,26.60
2023-08-22T08:31:59.991Z,26.70
2023-08-22T08:34:27.137Z,27.00
2023-08-22T08:36:54.338Z,27.00
2023-08-22T08:39:21.502Z,27.10
2023-08-22T08:42:11.669Z,26.70
2023-08-22T08:44:39.372Z,26.90
2023-08-22T08:47:11.221Z,25.90
2023-08-22T08:49:39.030Z,26.00
2023-08-22T08:52:08.124Z,26.30
2023-08-22T08:54:35.896Z,26.60
2023-08-22T08:57:04.437Z,26.70
2023-08-22T08:59:31.920Z,27.40
2023-08-22T09:02:01.461Z,26.90
2023-08-22T09:04:28.970Z,27.00
2023-08-22T09:06:55.913Z,27.00
2023-08-22T09:09:22.973Z,26.90
2023-08-22T09:11:53.745Z,26.90
2023-08-22T09:14:23.444Z,26.90
2023-08-22T09:16:50.805Z,26.60
2023-08-22T09:19:18.202Z,26.40
2023-08-22T09:22:04.208Z,26.90
2023-08-22T09:24:35.088Z,27.60
2023-08-22T09:27:06.790Z,27.40
2023-08-22T09:29:35.565Z,26.60
2023-08-22T09:32:02.526Z,26.40
2023-08-22T09:34:29.777Z,26.40
2023-08-22T09:36:57.028Z,25.80
2023-08-22T09:39:27.481Z,25.60
2023-08-22T09:41:59.629Z,25.70
2023-08-22T09:44:27.807Z,25.20
2023-08-22T09:46:56.682Z,25.00
2023-08-22T09:49:24.129Z,24.70
2023-08-22T09:51:54.759Z,24.60
2023-08-22T09:54:23.839Z,24.20
2023-08-22T09:56:52.188Z,23.80
2023-08-22T09:59:20.758Z,23.40
2023-08-22T10:01:49.228Z,22.90
2023-08-22T10:04:19.696Z,22.80
2023-08-22T10:06:53.419Z,22.50
2023-08-22T10:09:21.764Z,21.90
2023-08-22T10:11:57.963Z,22.00
2023-08-22T10:14:28.220Z,22.10
2023-08-22T10:17:00.289Z,21.50
2023-08-22T10:19:28.216Z,21.80
2023-08-22T10:21:55.445Z,21.30
2023-08-22T10:24:28.417Z,21.60
2023-08-22T10:27:06.815Z,21.30
2023-08-22T10:29:47.063Z,21.00
2023-08-22T10:32:18.621Z,22.10
2023-08-22T10:34:45.693Z,22.50
2023-08-22T10:37:27.029Z,22.70
2023-08-22T10:39:58.606Z,22.20
2023-08-22T10:42:27.127Z,21.70
2023-08-22T10:44:57.816Z,22.40
2023-08-22T10:47:31.716Z,21.80
2023-08-22T10:50:13.390Z,21.80
2023-08-22T10:52:43.795Z,21.30
2023-08-22T10:55:10.922Z,20.40
2023-08-22T10:57:48.606Z,20.40
2023-08-22T11:00:24.249Z,20.70
2023-08-22T11:02:53.049Z,20.60
2023-08-22T11:05:20.416Z,20.70
2023-08-22T11:07:49.823Z,20.10
2023-08-22T11:10:27.795Z,20.80
2023-08-22T11:12:56.745Z,20.60
2023-08-22T11:15:23.943Z,21.00
2023-08-22T11:17:52.139Z,21.20
2023-08-22T11:20:24.695Z,21.50
2023-08-22T11:22:52.087Z,21.30
2023-08-22T11:25:26.632Z,20.60
2023-08-22T11:27:54.079Z,21.00
2023-08-22T11:30:21.474Z,20.70
2023-08-22T11:32:49.290Z,20.20
2023-08-22T11:35:17.447Z,20.80
2023-08-22T11:37:44.885Z,19.90
2023-08-22T11:40:15.753Z,20.30
2023-08-22T11:42:43.605Z,19.30
2023-08-22T11:45:14.760Z,19.40
2023-08-22T11:47:49.949Z,18.60
2023-08-22T11:50:24.760Z,19.10
2023-08-22T11:53:14.305Z,19.00
2023-08-22T11:55:48.560Z,18.70
2023-08-22T11:58:18.219Z,18.40
2023-08-22T12:00:45.957Z,18.80
2023-08-22T12:03:14.237Z,18.80
2023-08-22T12:05:51.481Z,19.40
2023-08-22T12:08:21.283Z,18.80
2023-08-22T12:10:53.609Z,18.80
2023-08-22T12:13:24.940Z,18.60
2023-08-22T12:15:53.113Z,17.60
2023-08-22T12:18:20.575Z,17.80
2023-08-22T12:20:50.409Z,17.60
2023-08-22T12:23:17.640Z,18.40
2023-08-22T12:25:44.998Z,17.70
2023-08-22T12:28:12.136Z,18.30
2023-08-22T12:30:40.666Z,18.50
2023-08-22T12:33:09.499Z,18.10
2023-08-22T12:35:42.584Z,17.70
2023-08-22T12:38:10.976Z,18.00
2023-08-22T12:40:38.105Z,18.60
2023-08-22T12:43:05.252Z,17.10
2023-08-22T12:45:32.530Z,17.10
2023-08-22T12:47:59.884Z,17.10
2023-08-22T12:50:26.868Z,18.40
2023-08-22T12:52:53.935Z,17.70
2023-08-22T12:55:22.511Z,18.20
2023-08-22T12:57:49.744Z,18.10
2023-08-22T13:00:17.002Z,18.00
2023-08-22T13:02:45.580Z,18.00
2023-08-22T13:05:15.427Z,18.10
2023-08-22T13:07:42.669Z,18.00
2023-08-22T13:10:09.890Z,18.00
2023-08-22T13:12:38.114Z,17.40
2023-08-22T13:15:05.566Z,17.30
2023-08-22T13:17:32.829Z,17.40
2023-08-22T13:20:00.547Z,17.20
2023-08-22T13:22:27.778Z,17.20
2023-08-22T13:24:54.933Z,18.10
2023-08-22T13:27:22.299Z,18.10
2023-08-22T13:29:49.320Z,18.10
2023-08-22T13:32:16.347Z,18.10
2023-08-22T13:34:43.810Z,18.20
2023-08-22T13:37:10.902Z,18.30
2023-08-22T13:39:37.869Z,18.60
2023-08-22T13:42:04.866Z,18.50
2023-08-22T13:44:31.920Z,17.80
2023-08-22T13:46:59.573Z,18.30
2023-08-22T13:49:27.307Z,18.20
2023-08-22T13:51:54.358Z,18.60
2023-08-22T13:54:23.530Z,18.90
2023-08-22T13:56:50.725Z,18.50
2023-08-22T13:59:17.807Z,18.90
2023-08-22T14:01:46.832Z,19.30
2023-08-22T14:04:13.856Z,19.20
2023-08-22T14:06:40.788Z,19.50
2023-08-22T14:09:20.076Z,19.80
2023-08-22T14:11:53.811Z,20.10
2023-08-22T14:14:20.861Z,19.10
2023-08-22T14:16:48.393Z,19.10
2023-08-22T14:19:15.418Z,18.90
2023-08-22T14:21:47.889Z,18.70
2023-08-22T14:24:18.885Z,18.40
2023-08-22T14:26:45.949Z,18.90
2023-08-22T14:29:13.066Z,18.90
2023-08-22T14:31:40.240Z,19.10
2023-08-22T14:34:08.724Z,19.50
2023-08-22T14:36:35.811Z,19.20
2023-08-22T14:39:04.542Z,19.60
2023-08-22T14:41:31.890Z,19.50
2023-08-22T14:43:58.990Z,20.20
2023-08-22T14:46:26.691Z,19.60
2023-08-22T14:48:55.175Z,19.80
2023-08-22T14:51:22.474Z,20.60
2023-08-22T14:53:52.482Z,20.30
2023-08-22T14:56:19.637Z,19.80
2023-08-22T14:58:48.502Z,20.30
2023-08-22T15:01:18.416Z,20.00
2023-08-22T15:03:45.682Z,19.70
2023-08-22T15:06:13.346Z,20.00
2023-08-22T15:08:42.011Z,19.60
2023-08-22T15:11:09.515Z,19.60
2023-08-22T15:13:37.060Z,20.00
2023-08-22T15:16:04.726Z,20.00
2023-08-22T15:18:32.225Z,19.10
2023-08-22T15:21:02.908Z,19.00
2023-08-22T15:23:30.228Z,19.70
2023-08-22T15:25:58.557Z,19.90
2023-08-22T15:28:26.365Z,19.60
2023-08-22T15:31:00.043Z,20.00
2023-08-22T15:33:30.693Z,20.40
2023-08-22T15:36:01.403Z,20.80
2023-08-22T15:38:33.725Z,21.70
2023-08-22T15:41:02.599Z,21.80
2023-08-22T15:43:31.876Z,20.50
2023-08-22T15:45:59.235Z,21.10
2023-08-22T15:48:28.220Z,20.90
2023-08-22T15:50:59.628Z,21.50
2023-08-22T15:53:27.567Z,21.00
2023-08-22T15:55:54.852Z,20.80
2023-08-22T15:58:22.013Z,21.30
2023-08-22T16:00:49.212Z,21.10
2023-08-22T16:03:16.519Z,21.00
2023-08-22T16:05:43.795Z,21.00
2023-08-22T16:08:11.170Z,21.20
2023-08-22T16:10:38.477Z,21.60
2023-08-22T16:13:05.784Z,21.50
2023-08-22T16:15:32.917Z,22.10
2023-08-22T16:18:00.072Z,22.70
2023-08-22T16:20:28.445Z,22.20
2023-08-22T16:22:56.596Z,22.00
2023-08-22T16:25:23.901Z,21.90
2023-08-22T16:27:51.185Z,22.50
2023-08-22T16:30:18.535Z,22.80
2023-08-22T16:32:45.835Z,22.60
2023-08-22T16:35:12.938Z,22.50
2023-08-22T16:37:42.415Z,22.90
2023-08-22T16:40:15.858Z,22.90
2023-08-22T16:42:43.087Z,22.90
2023-08-22T16:45:10.709Z,23.10
2023-08-22T16:47:37.904Z,22.80
2023-08-22T16:50:08.083Z,22.60
2023-08-22T16:52:35.588Z,22.50
2023-08-22T16:55:05.021Z,22.70
2023-08-22T16:57:35.064Z,22.50
2023-08-22T17:00:02.827Z,22.40
2023-08-22T17:02:30.006Z,22.40
2023-08-22T17:04:57.146Z,22.30
2023-08-22T17:07:24.417Z,22.50
2023-08-22T17:09:51.594Z,22.50
2023-08-22T17:12:18.796Z,22.60
2023-08-22T17:14:45.931Z,22.50
2023-08-22T17:17:13.188Z,22.50
2023-08-22T17:19:40.364Z,22.50
2023-08-22T17:22:07.533Z,22.70
2023-08-22T17:24:34.695Z,23.20
2023-08-22T17:27:11.190Z,23.10
2023-08-22T17:29:38.461Z,23.20
2023-08-22T17:32:08.486Z,23.70
2023-08-22T17:34:35.600Z,23.10
2023-08-22T17:37:03.374Z,23.20
2023-08-22T17:39:31.294Z,23.30
2023-08-22T17:41:58.633Z,23.40
2023-08-22T17:44:25.864Z,23.40
2023-08-22T17:46:56.234Z,23.60
2023-08-22T17:49:23.280Z,23.90
2023-08-22T17:51:50.314Z,24.40
2023-08-22T17:54:17.603Z,24.70
2023-08-22T17:56:51.415Z,24.80
2023-08-22T17:59:18.650Z,24.80
2023-08-22T18:01:46.644Z,25.40
2023-08-22T18:04:13.770Z,25.30
2023-08-22T18:06:41.014Z,25.30
2023-08-22T18:09:08.089Z,25.10
2023-08-22T18:11:37.008Z,25.00
2023-08-22T18:14:07.020Z,25.00
2023-08-22T18:16:34.195Z,24.90
2023-08-22T18:19:02.878Z,24.90
2023-08-22T18:21:30.314Z,25.50
2023-08-22T18:23:57.346Z,25.40
2023-08-22T18:26:24.413Z,25.80
2023-08-22T18:28:52.184Z,26.10
2023-08-22T18:31:19.297Z,25.80
2023-08-22T18:33:46.595Z,25.70
2023-08-22T18:36:18.378Z,25.60
2023-08-22T18:38:45.853Z,25.90
2023-08-22T18:41:13.448Z,26.20
2023-08-22T18:43:46.773Z,26.10
2023-08-22T18:46:15.094Z,25.90
2023-08-22T18:48:42.822Z,25.70
2023-08-22T18:51:10.286Z,25.90
2023-08-22T18:53:38.101Z,26.00
2023-08-22T18:56:06.862Z,26.00
2023-08-22T18:58:36.917Z,25.90
2023-08-22T19:01:04.223Z,26.00
2023-08-22T19:03:31.466Z,26.20
2023-08-22T19:05:58.797Z,26.50
2023-08-22T19:08:28.442Z,26.30
2023-08-22T19:10:55.570Z,26.40
2023-08-22T19:13:22.765Z,26.30
2023-08-22T19:15:51.192Z,26.10
2023-08-22T19:18:18.453Z,26.40
2023-08-22T19:20:48.840Z,26.20
2023-08-22T19:23:16.811Z,26.10
2023-08-22T19:25:44.297Z,26.10
2023-08-22T19:28:13.222Z,25.90
2023-08-22T19:30:40.871Z,26.10
2023-08-22T19:35:41.279Z,26.90
2023-08-22T19:38:08.515Z,27.10
2023-08-22T19:40:35.932Z,27.20
2023-08-22T19:43:03.264Z,26.90
2023-08-22T19:45:34.028Z,27.10
2023-08-22T19:48:01.494Z,27.10
2023-08-22T19:50:28.764Z,26.70
2023-08-22T19:52:56.079Z,26.90
2023-08-22T19:55:23.237Z,27.10
2023-08-22T19:57:50.402Z,27.40
2023-08-22T20:00:18.875Z,27.40
2023-08-22T20:02:49.254Z,27.40
2023-08-22T20:05:17.112Z,27.50
2023-08-22T20:07:52.593Z,27.70
2023-08-22T20:10:20.686Z,27.90
2023-08-22T20:12:50.015Z,28.10
2023-08-22T20:15:17.642Z,27.90
2023-08-22T20:17:45.742Z,27.70
2023-08-22T20:20:13.409Z,27.90
2023-08-22T20:22:40.836Z,27.80
2023-08-22T20:25:08.656Z,27.80
2023-08-22T20:27:35.909Z,27.90
2023-08-22T20:30:03.570Z,28.40
2023-08-22T20:32:31.045Z,28.70
2023-08-22T20:34:58.153Z,28.70
2023-08-22T20:37:25.352Z,29.00
2023-08-22T20:39:53.043Z,28.90
2023-08-22T20:42:20.389Z,29.00
2023-08-22T20:44:47.583Z,29.50
2023-08-22T20:47:15.394Z,29.60
2023-08-22T20:49:42.482Z,29.70
2023-08-22T20:52:09.586Z,29.60
2023-08-22T20:54:36.918Z,29.60
2023-08-22T20:57:04.176Z,29.90
2023-08-22T20:59:31.317Z,30.10
2023-08-22T21:01:58.448Z,30.10
2023-08-22T21:04:25.561Z,30.40
2023-08-22T21:06:52.629Z,31.20
2023-08-22T21:09:19.828Z,30.40
2023-08-22T21:11:46.999Z,30.60
2023-08-22T21:14:14.046Z,30.70
2023-08-22T21:16:41.522Z,30.40
2023-08-22T21:19:08.717Z,30.80
2023-08-22T21:21:35.829Z,30.70
2023-08-22T21:24:02.967Z,30.00
2023-08-22T21:26:30.197Z,29.90
2023-08-22T21:28:57.360Z,29.80
2023-08-22T21:31:24.667Z,29.60
2023-08-22T21:33:51.800Z,29.10
2023-08-22T21:36:18.875Z,28.80
2023-08-22T21:38:46.385Z,28.50
2023-08-22T21:41:13.560Z,28.40
2023-08-22T21:43:40.621Z,28.00
2023-08-22T21:46:08.944Z,27.80
2023-08-22T21:48:36.379Z,27.70
2023-08-22T21:51:03.398Z,27.70
2023-08-22T21:53:30.484Z,27.70
2023-08-22T21:55:57.572Z,27.50
2023-08-22T21:58:24.878Z,27.80
2023-08-22T22:01:08.395Z,27.80
2023-08-22T22:03:36.722Z,27.80
2023-08-22T22:06:04.165Z,27.80
2023-08-22T22:08:31.348Z,27.70
2023-08-22T22:11:00.189Z,27.70
2023-08-22T22:13:27.828Z,27.70
2023-08-22T22:15:55.560Z,27.70
2023-08-22T22:18:24.535Z,27.80
2023-08-22T22:20:58.964Z,27.90
2023-08-22T22:23:26.603Z,27.80
2023-08-22T22:26:00.593Z,28.00
2023-08-22T22:28:31.475Z,27.90
2023-08-22T22:31:00.099Z,27.70
2023-08-22T22:33:27.691Z,27.50
2023-08-22T22:35:54.831Z,27.60
2023-08-22T22:38:22.040Z,27.50
2023-08-22T22:40:49.146Z,27.50
2023-08-22T22:43:16.316Z,27.60
2023-08-22T22:45:43.439Z,27.50
2023-08-22T22:48:11.293Z,27.50
2023-08-22T22:50:39.350Z,27.50
2023-08-22T22:53:06.457Z,27.50
2023-08-22T22:55:33.578Z,27.40
2023-08-22T22:58:00.985Z,27.40
2023-08-22T23:00:28.228Z,27.30
2023-08-22T23:03:00.348Z,27.30
2023-08-22T23:05:28.140Z,27.80
2023-08-22T23:07:55.224Z,27.20
2023-08-22T23:10:22.681Z,27.30
2023-08-22T23:12:50.277Z,27.30
2023-08-22T23:15:17.587Z,27.30
2023-08-22T23:17:48.096Z,27.30
2023-08-22T23:20:19.131Z,27.40
2023-08-22T23:22:49.225Z,27.50
2023-08-22T23:25:16.807Z,27.50
2023-08-22T23:27:45.089Z,27.70
2023-08-22T23:30:14.877Z,27.80
2023-08-22T23:32:41.994Z,27.70
2023-08-22T23:35:09.414Z,27.80
2023-08-22T23:37:36.793Z,27.70
2023-08-22T23:40:21.430Z,27.60
2023-08-22T23:42:50.513Z,27.60
2023-08-22T23:45:17.620Z,27.60
2023-08-22T23:47:45.355Z,28.10
2023-08-22T23:50:12.783Z,29.00
2023-08-22T23:52:40.243Z,28.60
2023-08-22T23:55:08.387Z,28.50
2023-08-22T23:57:36.996Z,28.20
